createdAt,value
2023-06-24T07:02:54.612Z,25.94
2023-06-24T07:05:24.296Z,26.13
2023-06-24T07:07:55.247Z,26.17
2023-06-24T07:10:25.655Z,26.23
2023-06-24T07:12:59.661Z,26.41
2023-06-24T07:15:32.258Z,26.58
2023-06-24T07:18:01.494Z,26.80
2023-06-24T07:20:30.532Z,26.92
2023-06-24T07:22:59.646Z,26.88
2023-06-24T07:25:29.926Z,26.97
2023-06-24T07:27:58.850Z,27.10
2023-06-24T07:30:28.143Z,27.22
2023-06-24T07:32:57.088Z,27.33
2023-06-24T07:35:25.909Z,27.36
2023-06-24T07:37:54.759Z,27.35
2023-06-24T07:40:23.567Z,27.51
2023-06-24T07:42:52.400Z,27.69
2023-06-24T07:45:21.481Z,27.87
2023-06-24T07:47:50.340Z,28.06
2023-06-24T07:50:19.375Z,28.18
2023-06-24T07:52:48.310Z,28.21
2023-06-24T07:55:17.329Z,28.22
2023-06-24T07:57:48.530Z,28.14
2023-06-24T08:00:18.575Z,28.37
2023-06-24T08:02:48.394Z,28.47
2023-06-24T08:05:19.919Z,28.41
2023-06-24T08:07:48.870Z,28.43
2023-06-24T08:10:17.654Z,28.47
2023-06-24T08:12:46.597Z,28.60
2023-06-24T08:15:15.457Z,28.71
2023-06-24T08:17:44.979Z,28.77
2023-06-24T08:20:13.824Z,28.91
2023-06-24T08:22:42.613Z,29.04
2023-06-24T08:25:11.361Z,29.21
2023-06-24T08:27:40.230Z,29.26
2023-06-24T08:30:09.658Z,29.32
2023-06-24T08:32:38.429Z,29.42
2023-06-24T08:35:09.688Z,29.40
2023-06-24T08:37:39.121Z,29.31
2023-06-24T08:40:08.701Z,29.54
2023-06-24T08:42:38.054Z,29.70
2023-06-24T08:45:08.785Z,29.74
2023-06-24T08:47:37.994Z,29.76
2023-06-24T08:50:17.768Z,29.58
2023-06-24T08:52:56.386Z,29.82
2023-06-24T08:55:29.801Z,30.03
2023-06-24T08:57:58.781Z,29.88
2023-06-24T09:00:28.756Z,29.85
2023-06-24T09:02:57.704Z,29.69
2023-06-24T09:05:26.500Z,29.96
2023-06-24T09:07:55.290Z,30.15
2023-06-24T09:10:38.354Z,30.24
2023-06-24T09:13:08.437Z,30.16
2023-06-24T09:15:39.360Z,29.97
2023-06-24T09:18:08.367Z,30.12
2023-06-24T09:20:41.169Z,30.33
2023-06-24T09:23:10.053Z,30.56
2023-06-24T09:25:39.009Z,30.62
2023-06-24T09:28:08.186Z,30.27
2023-06-24T09:30:37.036Z,30.47
2023-06-24T09:33:06.351Z,30.28
2023-06-24T09:35:38.218Z,30.40
2023-06-24T09:38:07.115Z,30.68
2023-06-24T09:40:38.287Z,31.09
2023-06-24T09:43:07.358Z,31.42
2023-06-24T09:45:36.787Z,31.07
2023-06-24T09:48:06.512Z,30.63
2023-06-24T09:50:35.816Z,30.80
2023-06-24T09:53:06.075Z,30.89
2023-06-24T09:55:35.523Z,31.12
2023-06-24T09:58:05.682Z,31.20
2023-06-24T10:00:34.967Z,31.08
2023-06-24T10:03:04.943Z,31.20
2023-06-24T10:05:34.361Z,31.55
2023-06-24T10:08:06.923Z,31.38
2023-06-24T10:10:36.334Z,31.40
2023-06-24T10:13:05.876Z,30.96
2023-06-24T10:15:36.578Z,30.99
2023-06-24T10:18:38.891Z,31.21
2023-06-24T10:21:10.437Z,31.59
2023-06-24T10:23:49.051Z,31.86
2023-06-24T10:26:29.953Z,32.10
2023-06-24T10:29:07.906Z,32.51
2023-06-24T10:31:45.670Z,32.61
2023-06-24T10:34:20.891Z,32.65
2023-06-24T10:37:03.581Z,32.47
2023-06-24T10:39:59.480Z,32.54
2023-06-24T10:42:44.733Z,33.07
2023-06-24T10:45:15.257Z,33.46
2023-06-24T10:47:54.292Z,33.65
2023-06-24T10:50:25.520Z,34.07
2023-06-24T10:52:57.412Z,34.21
2023-06-24T10:55:29.994Z,34.65
2023-06-24T10:58:14.058Z,34.78
2023-06-24T11:00:48.301Z,34.80
2023-06-24T11:03:23.330Z,34.59
2023-06-24T11:05:52.350Z,34.56
2023-06-24T11:08:22.382Z,35.50
2023-06-24T11:10:51.246Z,35.76
2023-06-24T11:13:22.274Z,35.79
2023-06-24T11:15:51.161Z,35.75
2023-06-24T11:18:20.284Z,35.79
2023-06-24T11:20:49.360Z,35.98
2023-06-24T11:23:18.452Z,35.38
2023-06-24T11:25:47.477Z,35.03
2023-06-24T11:28:23.025Z,35.77
2023-06-24T11:30:52.738Z,35.96
2023-06-24T11:33:29.505Z,36.07
2023-06-24T11:35:58.507Z,36.32
2023-06-24T11:38:33.608Z,36.38
2023-06-24T11:41:03.554Z,36.43
2023-06-24T11:43:32.626Z,36.71
2023-06-24T11:46:01.658Z,36.67
2023-06-24T11:48:30.736Z,36.80
2023-06-24T11:50:59.841Z,37.26
2023-06-24T11:53:42.629Z,37.69
2023-06-24T11:56:11.854Z,37.99
2023-06-24T11:58:41.053Z,38.16
2023-06-24T12:01:10.038Z,38.62
2023-06-24T12:03:39.067Z,38.89
2023-06-24T12:06:08.072Z,39.07
2023-06-24T12:08:51.507Z,38.37
2023-06-24T12:11:21.096Z,38.54
2023-06-24T12:13:50.408Z,38.15
2023-06-24T12:16:19.130Z,37.45
2023-06-24T12:18:47.865Z,37.44
2023-06-24T12:21:16.689Z,37.19
2023-06-24T12:23:46.281Z,38.43
2023-06-24T12:26:15.224Z,38.30
2023-06-24T12:28:44.043Z,37.61
2023-06-24T12:31:13.298Z,38.12
2023-06-24T12:33:42.077Z,37.51
2023-06-24T12:36:10.809Z,37.65
2023-06-24T12:38:39.533Z,38.29
2023-06-24T12:41:08.339Z,38.14
2023-06-24T12:43:37.179Z,38.51
2023-06-24T12:46:05.998Z,38.90
2023-06-24T12:48:34.696Z,38.90
2023-06-24T12:51:03.475Z,37.86
2023-06-24T12:53:32.221Z,38.32
2023-06-24T12:56:01.038Z,38.84
2023-06-24T12:58:29.789Z,39.23
2023-06-24T13:00:58.556Z,38.69
2023-06-24T13:03:27.473Z,38.28
2023-06-24T13:05:56.191Z,37.51
2023-06-24T13:08:24.963Z,36.47
2023-06-24T13:10:53.718Z,35.71
2023-06-24T13:13:22.536Z,35.04
2023-06-24T13:15:51.377Z,34.83
2023-06-24T13:18:20.916Z,34.52
2023-06-24T13:20:50.792Z,34.28
2023-06-24T13:23:19.799Z,34.14
2023-06-24T13:25:48.603Z,34.12
2023-06-24T13:28:17.380Z,33.82
2023-06-24T13:30:46.222Z,33.92
2023-06-24T13:33:15.041Z,33.63
2023-06-24T13:35:43.896Z,33.37
2023-06-24T13:38:13.477Z,33.28
2023-06-24T13:40:42.359Z,33.48
2023-06-24T13:43:11.354Z,33.22
2023-06-24T13:45:40.176Z,32.93
2023-06-24T13:48:08.912Z,32.76
2023-06-24T13:50:37.991Z,32.62
2023-06-24T13:53:07.053Z,32.37
2023-06-24T13:55:37.494Z,32.24
2023-06-24T13:58:06.266Z,32.25
2023-06-24T14:00:35.229Z,32.16
2023-06-24T14:03:04.405Z,32.10
2023-06-24T14:05:33.157Z,32.42
2023-06-24T14:08:01.832Z,32.51
2023-06-24T14:10:30.614Z,32.69
2023-06-24T14:12:59.296Z,32.77
2023-06-24T14:15:28.099Z,32.73
2023-06-24T14:17:56.852Z,32.75
2023-06-24T14:20:26.195Z,32.59
2023-06-24T14:22:54.942Z,32.73
2023-06-24T14:25:23.732Z,32.77
2023-06-24T14:27:52.514Z,32.70
2023-06-24T14:30:21.351Z,32.58
2023-06-24T14:32:50.126Z,32.55
2023-06-24T14:35:18.987Z,32.57
2023-06-24T14:37:47.749Z,32.56
2023-06-24T14:40:16.563Z,32.48
2023-06-24T14:42:45.352Z,32.37
2023-06-24T14:45:14.537Z,32.12
2023-06-24T14:47:43.619Z,32.13
2023-06-24T14:50:12.443Z,32.12
2023-06-24T14:52:41.108Z,32.11
2023-06-24T14:55:10.541Z,31.94
2023-06-24T14:57:40.067Z,32.00
2023-06-24T15:00:10.036Z,32.08
2023-06-24T15:02:38.842Z,32.07
2023-06-24T15:05:08.149Z,32.03
2023-06-24T15:07:38.633Z,32.07
2023-06-24T15:10:08.206Z,32.08
2023-06-24T15:12:36.996Z,32.00
2023-06-24T15:15:06.581Z,32.18
2023-06-24T15:17:36.543Z,32.34
2023-06-24T15:20:06.389Z,32.32
2023-06-24T15:22:35.270Z,32.09
2023-06-24T15:25:05.248Z,32.22
2023-06-24T15:27:35.959Z,32.18
2023-06-24T15:30:06.253Z,31.94
2023-06-24T15:32:35.110Z,31.93
2023-06-24T15:35:05.171Z,31.89
2023-06-24T15:37:34.037Z,31.89
2023-06-24T15:40:02.867Z,31.85
2023-06-24T15:42:31.942Z,31.84
2023-06-24T15:45:00.833Z,31.79
2023-06-24T15:47:29.694Z,31.74
2023-06-24T15:49:59.091Z,31.68
2023-06-24T15:52:28.201Z,31.52
2023-06-24T15:54:56.907Z,31.56
2023-06-24T15:57:26.052Z,31.48
2023-06-24T15:59:54.808Z,31.34
2023-06-24T16:02:23.662Z,31.16
2023-06-24T16:04:52.531Z,31.03
2023-06-24T16:07:21.514Z,31.05
2023-06-24T16:09:50.334Z,30.97
2023-06-24T16:12:19.575Z,30.90
2023-06-24T16:14:48.887Z,30.77
2023-06-24T16:17:18.259Z,30.59
2023-06-24T16:19:48.210Z,30.45
2023-06-24T16:22:17.855Z,30.45
2023-06-24T16:24:47.559Z,30.42
2023-06-24T16:27:18.542Z,30.30
2023-06-24T16:29:48.513Z,30.25
2023-06-24T16:32:17.395Z,30.19
2023-06-24T16:34:46.089Z,30.14
2023-06-24T16:37:14.879Z,30.03
2023-06-24T16:39:44.001Z,29.91
2023-06-24T16:42:13.236Z,29.96
2023-06-24T16:44:42.254Z,29.98
2023-06-24T16:47:11.460Z,29.88
2023-06-24T16:49:40.780Z,29.88
2023-06-24T16:52:10.720Z,29.84
2023-06-24T16:54:39.801Z,29.83
2023-06-24T16:57:08.606Z,29.68
2023-06-24T16:59:37.475Z,29.62
2023-06-24T17:02:08.163Z,29.53
2023-06-24T17:04:37.128Z,29.51
2023-06-24T17:07:05.997Z,29.56
2023-06-24T17:09:34.760Z,29.55
2023-06-24T17:12:04.200Z,29.49
2023-06-24T17:14:32.990Z,29.51
2023-06-24T17:17:01.726Z,29.76
2023-06-24T17:19:30.410Z,30.07
2023-06-24T17:21:59.197Z,30.33
2023-06-24T17:24:28.044Z,30.45
2023-06-24T17:26:56.780Z,30.55
2023-06-24T17:29:25.471Z,30.66
2023-06-24T17:31:54.193Z,30.64
2023-06-24T17:34:22.991Z,30.56
2023-06-24T17:36:51.752Z,30.39
2023-06-24T17:39:20.427Z,30.22
2023-06-24T17:41:49.144Z,30.05
2023-06-24T17:44:17.895Z,29.96
2023-06-24T17:46:46.664Z,29.78
2023-06-24T17:49:15.453Z,29.70
2023-06-24T17:51:44.144Z,29.54
2023-06-24T17:54:12.956Z,29.40
2023-06-24T17:56:41.631Z,29.24
2023-06-24T17:59:10.388Z,29.07
2023-06-24T18:01:39.202Z,28.92
2023-06-24T18:04:07.983Z,28.78
2023-06-24T18:06:36.693Z,28.64
2023-06-24T18:09:05.433Z,28.45
2023-06-24T18:11:34.178Z,28.26
2023-06-24T18:14:02.889Z,28.05
2023-06-24T18:16:31.627Z,27.83
2023-06-24T18:19:00.534Z,27.66
2023-06-24T18:21:29.324Z,27.55
2023-06-24T18:23:58.399Z,27.42
2023-06-24T18:26:27.429Z,27.29
2023-06-24T18:28:56.150Z,27.13
2023-06-24T18:31:24.968Z,27.05
2023-06-24T18:33:56.577Z,26.96
2023-06-24T18:36:26.774Z,26.87
2023-06-24T18:38:55.536Z,26.85
2023-06-24T18:41:24.294Z,26.85
2023-06-24T18:43:53.030Z,26.88
2023-06-24T18:46:21.738Z,26.93
2023-06-24T18:48:50.517Z,26.98
2023-06-24T18:51:19.216Z,27.03
2023-06-24T18:53:49.280Z,27.07
2023-06-24T18:56:17.950Z,27.08
2023-06-24T18:58:46.687Z,27.11
2023-06-24T19:01:15.437Z,27.14
2023-06-24T19:03:44.918Z,27.11
2023-06-24T19:06:13.673Z,27.07
2023-06-24T19:08:42.411Z,27.05
2023-06-24T19:11:11.162Z,26.99
2023-06-24T19:13:39.828Z,26.96
2023-06-24T19:16:08.902Z,26.91
2023-06-24T19:18:37.726Z,26.83
2023-06-24T19:21:06.502Z,26.81
2023-06-24T19:23:35.346Z,26.70
2023-06-24T19:26:04.190Z,26.66
2023-06-24T19:28:33.270Z,26.57
2023-06-24T19:31:02.548Z,26.55
2023-06-24T19:33:31.626Z,26.49
2023-06-24T19:36:00.365Z,26.42
2023-06-24T19:38:29.110Z,26.34
2023-06-24T19:40:57.884Z,26.29
2023-06-24T19:43:26.626Z,26.24
2023-06-24T19:45:55.303Z,26.16
2023-06-24T19:48:24.154Z,26.12
2023-06-24T19:50:52.878Z,26.09
2023-06-24T19:53:21.564Z,26.04
2023-06-24T19:55:50.329Z,26.00
2023-06-24T19:58:19.033Z,25.96
2023-06-24T20:00:47.708Z,25.90
2023-06-24T20:03:16.526Z,25.86
2023-06-24T20:05:45.353Z,25.87
2023-06-24T20:08:14.048Z,25.78
2023-06-24T20:10:42.917Z,25.80
2023-06-24T20:13:11.724Z,25.77
2023-06-24T20:15:40.510Z,25.76
2023-06-24T20:18:09.530Z,25.70
2023-06-24T20:20:38.604Z,25.70
2023-06-24T20:23:07.602Z,25.61
2023-06-24T20:25:36.336Z,25.45
2023-06-24T20:28:06.664Z,25.49
2023-06-24T20:30:37.070Z,25.48
2023-06-24T20:33:06.784Z,25.45
2023-06-24T20:35:39.321Z,25.37
2023-06-24T20:38:08.473Z,25.26
2023-06-24T20:40:37.997Z,25.25
2023-06-24T20:43:07.187Z,25.22
2023-06-24T20:45:35.887Z,25.11
2023-06-24T20:48:04.715Z,25.10
2023-06-24T20:50:33.393Z,25.03
2023-06-24T20:53:02.054Z,25.00
2023-06-24T20:55:30.706Z,24.93
2023-06-24T20:57:59.549Z,24.75
2023-06-24T21:00:28.399Z,24.71
2023-06-24T21:02:57.192Z,24.64
2023-06-24T21:05:26.524Z,24.57
2023-06-24T21:07:55.314Z,24.52
2023-06-24T21:10:24.086Z,24.40
2023-06-24T21:12:58.377Z,24.32
2023-06-24T21:15:27.977Z,24.30
2023-06-24T21:17:56.791Z,24.28
2023-06-24T21:20:25.592Z,24.17
2023-06-24T21:22:54.267Z,24.14
2023-06-24T21:25:23.084Z,24.11
2023-06-24T21:27:51.878Z,24.00
2023-06-24T21:30:21.014Z,23.91
2023-06-24T21:32:49.775Z,23.86
2023-06-24T21:35:18.693Z,23.80
2023-06-24T21:37:47.440Z,23.79
2023-06-24T21:40:16.598Z,23.74
2023-06-24T21:42:45.296Z,23.67
2023-06-24T21:45:13.989Z,23.53
2023-06-24T21:47:42.671Z,23.53
2023-06-24T21:50:11.747Z,23.54
2023-06-24T21:52:40.522Z,23.48
2023-06-24T21:55:09.638Z,23.39
2023-06-24T21:57:39.233Z,23.31
2023-06-24T22:00:16.301Z,23.19
2023-06-24T22:02:48.323Z,23.14
2023-06-24T22:05:25.191Z,23.06
2023-06-24T22:07:58.310Z,22.97
2023-06-24T22:10:27.039Z,22.93
2023-06-24T22:12:55.780Z,22.86
2023-06-24T22:15:24.576Z,22.81
2023-06-24T22:17:53.399Z,22.78
2023-06-24T22:20:22.236Z,22.70
2023-06-24T22:22:51.052Z,22.70
2023-06-24T22:25:19.832Z,22.63
2023-06-24T22:27:48.658Z,22.63
2023-06-24T22:30:17.466Z,22.53
2023-06-24T22:32:46.226Z,22.45
2023-06-24T22:35:15.004Z,22.42
2023-06-24T22:37:44.027Z,22.38
2023-06-24T22:40:12.944Z,22.33
2023-06-24T22:42:41.712Z,22.27
2023-06-24T22:45:12.876Z,22.23
2023-06-24T22:47:42.601Z,22.13
2023-06-24T22:50:11.844Z,22.10
2023-06-24T22:52:42.927Z,22.07
2023-06-24T22:55:11.714Z,21.98
2023-06-24T22:57:40.500Z,21.90
2023-06-24T23:00:10.150Z,21.89
2023-06-24T23:02:39.461Z,21.87
2023-06-24T23:05:09.501Z,21.79
2023-06-24T23:07:38.761Z,21.81
2023-06-24T23:10:09.055Z,21.80
2023-06-24T23:12:38.747Z,21.82
2023-06-24T23:15:08.628Z,21.84
2023-06-24T23:17:38.022Z,21.84
2023-06-24T23:20:07.713Z,21.85
2023-06-24T23:22:36.821Z,21.84
2023-06-24T23:25:06.469Z,21.87
2023-06-24T23:27:38.028Z,21.86
2023-06-24T23:30:08.603Z,21.86
2023-06-24T23:32:42.553Z,21.81
2023-06-24T23:35:12.840Z,21.88
2023-06-24T23:37:41.777Z,21.88
2023-06-24T23:40:11.392Z,21.88
2023-06-24T23:42:42.111Z,21.85
2023-06-24T23:45:11.836Z,21.82
2023-06-24T23:47:40.622Z,21.80
2023-06-24T23:50:09.838Z,21.78
2023-06-24T23:52:38.583Z,21.76
2023-06-24T23:55:09.223Z,21.79
2023-06-24T23:57:37.899Z,21.80
